sensor_id;sensor_type;location;lat;lon;timestamp;P1;durP1;ratioP1;P2;durP2;ratioP2
52642;SDS011;38531;53.296;6.614;2022-08-03T00:02:00;0.50;;;0.30;;
52642;SDS011;38531;53.296;6.614;2022-08-03T00:04:27;1.65;;;0.43;;
52642;SDS011;38531;53.296;6.614;2022-08-03T00:06:53;1.55;;;0.50;;
52642;SDS011;38531;53.296;6.614;2022-08-03T00:09:19;2.20;;;0.35;;
52642;SDS011;38531;53.296;6.614;2022-08-03T00:11:45;2.10;;;0.55;;
52642;SDS011;38531;53.296;6.614;2022-08-03T00:14:10;1.30;;;0.40;;
52642;SDS011;38531;53.296;6.614;2022-08-03T00:16:36;1.10;;;0.45;;
52642;SDS011;38531;53.296;6.614;2022-08-03T00:19:02;3.47;;;0.68;;
52642;SDS011;38531;53.296;6.614;2022-08-03T00:21:28;1.88;;;0.63;;
52642;SDS011;38531;53.296;6.614;2022-08-03T00:23:54;1.67;;;0.32;;
52642;SDS011;38531;53.296;6.614;2022-08-03T00:26:20;1.85;;;0.30;;
52642;SDS011;38531;53.296;6.614;2022-08-03T00:28:46;0.90;;;0.30;;
52642;SDS011;38531;53.296;6.614;2022-08-03T00:31:12;1.23;;;0.40;;
52642;SDS011;38531;53.296;6.614;2022-08-03T00:33:38;1.10;;;0.30;;
52642;SDS011;38531;53.296;6.614;2022-08-03T00:36:04;2.17;;;0.20;;
52642;SDS011;38531;53.296;6.614;2022-08-03T00:38:30;1.58;;;0.38;;
52642;SDS011;38531;53.296;6.614;2022-08-03T00:40:55;2.08;;;0.93;;
52642;SDS011;38531;53.296;6.614;2022-08-03T00:43:23;1.48;;;0.30;;
52642;SDS011;38531;53.296;6.614;2022-08-03T00:45:51;0.85;;;0.30;;
52642;SDS011;38531;53.296;6.614;2022-08-03T00:48:18;0.52;;;0.22;;
52642;SDS011;38531;53.296;6.614;2022-08-03T00:50:48;2.28;;;0.40;;
52642;SDS011;38531;53.296;6.614;2022-08-03T00:53:13;1.92;;;0.40;;
52642;SDS011;38531;53.296;6.614;2022-08-03T00:55:40;0.98;;;0.28;;
52642;SDS011;38531;53.296;6.614;2022-08-03T00:58:07;0.50;;;0.28;;
52642;SDS011;38531;53.296;6.614;2022-08-03T01:00:35;3.22;;;0.35;;
52642;SDS011;38531;53.296;6.614;2022-08-03T01:03:05;2.00;;;0.40;;
52642;SDS011;38531;53.296;6.614;2022-08-03T01:05:48;0.60;;;0.25;;
52642;SDS011;38531;53.296;6.614;2022-08-03T01:27:04;1.05;;;0.40;;
52642;SDS011;38531;53.296;6.614;2022-08-03T01:29:46;0.57;;;0.30;;
52642;SDS011;38531;53.296;6.614;2022-08-03T01:32:25;1.92;;;0.40;;
52642;SDS011;38531;53.296;6.614;2022-08-03T01:35:08;1.15;;;0.30;;
52642;SDS011;38531;53.296;6.614;2022-08-03T01:37:41;1.85;;;0.30;;
52642;SDS011;38531;53.296;6.614;2022-08-03T01:42:38;1.10;;;0.30;;
52642;SDS011;38531;53.296;6.614;2022-08-03T01:45:06;2.20;;;0.50;;
52642;SDS011;38531;53.296;6.614;2022-08-03T01:47:34;3.05;;;0.40;;
52642;SDS011;38531;53.296;6.614;2022-08-03T01:50:01;2.55;;;0.40;;
52642;SDS011;38531;53.296;6.614;2022-08-03T01:52:28;2.45;;;0.40;;
52642;SDS011;38531;53.296;6.614;2022-08-03T01:54:56;1.23;;;0.30;;
52642;SDS011;38531;53.296;6.614;2022-08-03T01:57:23;0.80;;;0.20;;
52642;SDS011;38531;53.296;6.614;2022-08-03T01:59:52;3.40;;;0.55;;
52642;SDS011;38531;53.296;6.614;2022-08-03T02:02:20;0.93;;;0.40;;
52642;SDS011;38531;53.296;6.614;2022-08-03T02:04:51;0.50;;;0.30;;
52642;SDS011;38531;53.296;6.614;2022-08-03T02:07:18;0.73;;;0.20;;
52642;SDS011;38531;53.296;6.614;2022-08-03T02:09:46;0.85;;;0.32;;
52642;SDS011;38531;53.296;6.614;2022-08-03T02:12:15;4.97;;;0.50;;
52642;SDS011;38531;53.296;6.614;2022-08-03T02:14:42;3.55;;;0.60;;
52642;SDS011;38531;53.296;6.614;2022-08-03T02:17:09;4.60;;;0.40;;
52642;SDS011;38531;53.296;6.614;2022-08-03T02:19:37;1.90;;;0.40;;
52642;SDS011;38531;53.296;6.614;2022-08-03T02:22:04;2.03;;;0.40;;
52642;SDS011;38531;53.296;6.614;2022-08-03T02:24:32;2.33;;;0.40;;
52642;SDS011;38531;53.296;6.614;2022-08-03T02:26:58;3.63;;;0.40;;
52642;SDS011;38531;53.296;6.614;2022-08-03T02:29:27;0.80;;;0.40;;
52642;SDS011;38531;53.296;6.614;2022-08-03T02:31:58;2.90;;;0.35;;
52642;SDS011;38531;53.296;6.614;2022-08-03T02:34:28;2.00;;;0.30;;
52642;SDS011;38531;53.296;6.614;2022-08-03T02:36:57;0.70;;;0.25;;
52642;SDS011;38531;53.296;6.614;2022-08-03T02:39:27;0.90;;;0.25;;
52642;SDS011;38531;53.296;6.614;2022-08-03T02:41:55;0.70;;;0.30;;
52642;SDS011;38531;53.296;6.614;2022-08-03T02:44:27;3.08;;;0.50;;
52642;SDS011;38531;53.296;6.614;2022-08-03T02:46:59;1.48;;;0.40;;
52642;SDS011;38531;53.296;6.614;2022-08-03T02:49:29;1.55;;;0.47;;
52642;SDS011;38531;53.296;6.614;2022-08-03T02:51:56;1.38;;;0.30;;
52642;SDS011;38531;53.296;6.614;2022-08-03T02:54:24;3.65;;;0.40;;
52642;SDS011;38531;53.296;6.614;2022-08-03T02:56:52;1.70;;;0.40;;
52642;SDS011;38531;53.296;6.614;2022-08-03T02:59:19;3.40;;;0.50;;
52642;SDS011;38531;53.296;6.614;2022-08-03T03:01:46;1.75;;;0.28;;
52642;SDS011;38531;53.296;6.614;2022-08-03T03:04:13;0.68;;;0.30;;
52642;SDS011;38531;53.296;6.614;2022-08-03T03:06:40;2.00;;;0.50;;
52642;SDS011;38531;53.296;6.614;2022-08-03T03:09:07;0.77;;;0.35;;
52642;SDS011;38531;53.296;6.614;2022-08-03T03:11:36;0.88;;;0.47;;
52642;SDS011;38531;53.296;6.614;2022-08-03T03:14:03;2.88;;;0.50;;
52642;SDS011;38531;53.296;6.614;2022-08-03T03:16:29;2.85;;;0.40;;
52642;SDS011;38531;53.296;6.614;2022-08-03T03:18:56;3.17;;;0.45;;
52642;SDS011;38531;53.296;6.614;2022-08-03T03:21:23;2.47;;;0.50;;
52642;SDS011;38531;53.296;6.614;2022-08-03T03:23:50;0.70;;;0.40;;
52642;SDS011;38531;53.296;6.614;2022-08-03T03:26:17;3.13;;;0.25;;
52642;SDS011;38531;53.296;6.614;2022-08-03T03:28:43;1.75;;;0.50;;
52642;SDS011;38531;53.296;6.614;2022-08-03T03:31:09;1.95;;;0.47;;
52642;SDS011;38531;53.296;6.614;2022-08-03T03:33:35;2.95;;;0.40;;
52642;SDS011;38531;53.296;6.614;2022-08-03T03:36:03;0.60;;;0.30;;
52642;SDS011;38531;53.296;6.614;2022-08-03T03:38:30;0.88;;;0.40;;
52642;SDS011;38531;53.296;6.614;2022-08-03T03:40:56;6.13;;;0.85;;
52642;SDS011;38531;53.296;6.614;2022-08-03T03:43:23;1.58;;;0.50;;
52642;SDS011;38531;53.296;6.614;2022-08-03T03:45:49;3.20;;;0.65;;
52642;SDS011;38531;53.296;6.614;2022-08-03T03:48:18;2.80;;;0.50;;
52642;SDS011;38531;53.296;6.614;2022-08-03T03:50:45;3.08;;;0.80;;
52642;SDS011;38531;53.296;6.614;2022-08-03T03:53:11;2.05;;;0.60;;
52642;SDS011;38531;53.296;6.614;2022-08-03T03:55:40;4.53;;;0.63;;
52642;SDS011;38531;53.296;6.614;2022-08-03T03:58:06;2.38;;;1.13;;
52642;SDS011;38531;53.296;6.614;2022-08-03T04:00:33;1.77;;;0.40;;
52642;SDS011;38531;53.296;6.614;2022-08-03T04:02:59;3.33;;;0.55;;
52642;SDS011;38531;53.296;6.614;2022-08-03T04:05:25;2.65;;;0.52;;
52642;SDS011;38531;53.296;6.614;2022-08-03T04:08:11;1.58;;;0.43;;
52642;SDS011;38531;53.296;6.614;2022-08-03T04:14:21;1.75;;;0.40;;
52642;SDS011;38531;53.296;6.614;2022-08-03T04:16:44;4.90;;;0.50;;
52642;SDS011;38531;53.296;6.614;2022-08-03T04:19:33;4.78;;;0.63;;
52642;SDS011;38531;53.296;6.614;2022-08-03T04:22:04;2.15;;;0.50;;
52642;SDS011;38531;53.296;6.614;2022-08-03T04:24:36;1.58;;;0.40;;
52642;SDS011;38531;53.296;6.614;2022-08-03T04:27:09;1.23;;;0.43;;
52642;SDS011;38531;53.296;6.614;2022-08-03T04:29:39;2.80;;;0.47;;
52642;SDS011;38531;53.296;6.614;2022-08-03T04:32:07;3.15;;;0.47;;
52642;SDS011;38531;53.296;6.614;2022-08-03T04:34:35;2.78;;;0.80;;
52642;SDS011;38531;53.296;6.614;2022-08-03T04:37:01;4.40;;;0.70;;
52642;SDS011;38531;53.296;6.614;2022-08-03T04:39:34;1.23;;;0.50;;
52642;SDS011;38531;53.296;6.614;2022-08-03T04:42:01;0.90;;;0.40;;
52642;SDS011;38531;53.296;6.614;2022-08-03T04:44:30;2.30;;;0.63;;
52642;SDS011;38531;53.296;6.614;2022-08-03T04:46:59;1.40;;;0.70;;
52642;SDS011;38531;53.296;6.614;2022-08-03T04:49:25;2.88;;;0.65;;
52642;SDS011;38531;53.296;6.614;2022-08-03T04:51:53;4.03;;;0.50;;
52642;SDS011;38531;53.296;6.614;2022-08-03T04:54:26;3.72;;;0.60;;
52642;SDS011;38531;53.296;6.614;2022-08-03T04:56:52;1.55;;;0.40;;
52642;SDS011;38531;53.296;6.614;2022-08-03T04:59:20;3.58;;;0.65;;
52642;SDS011;38531;53.296;6.614;2022-08-03T05:01:46;3.80;;;0.60;;
52642;SDS011;38531;53.296;6.614;2022-08-03T05:04:12;4.10;;;0.70;;
52642;SDS011;38531;53.296;6.614;2022-08-03T05:06:38;3.05;;;0.80;;
52642;SDS011;38531;53.296;6.614;2022-08-03T05:09:04;2.15;;;0.63;;
52642;SDS011;38531;53.296;6.614;2022-08-03T05:11:33;1.92;;;0.60;;
52642;SDS011;38531;53.296;6.614;2022-08-03T05:13:58;3.72;;;0.63;;
52642;SDS011;38531;53.296;6.614;2022-08-03T05:16:26;1.73;;;0.70;;
52642;SDS011;38531;53.296;6.614;2022-08-03T05:18:52;1.42;;;0.90;;
52642;SDS011;38531;53.296;6.614;2022-08-03T05:21:18;5.90;;;0.82;;
52642;SDS011;38531;53.296;6.614;2022-08-03T05:23:47;4.93;;;0.88;;
52642;SDS011;38531;53.296;6.614;2022-08-03T05:26:12;1.98;;;0.63;;
52642;SDS011;38531;53.296;6.614;2022-08-03T05:28:41;4.35;;;0.73;;
52642;SDS011;38531;53.296;6.614;2022-08-03T05:31:09;2.97;;;0.60;;
52642;SDS011;38531;53.296;6.614;2022-08-03T05:33:37;3.72;;;1.00;;
52642;SDS011;38531;53.296;6.614;2022-08-03T05:36:03;7.95;;;0.73;;
52642;SDS011;38531;53.296;6.614;2022-08-03T05:38:32;2.15;;;0.70;;
52642;SDS011;38531;53.296;6.614;2022-08-03T05:40:58;1.90;;;0.63;;
52642;SDS011;38531;53.296;6.614;2022-08-03T05:43:24;1.55;;;0.88;;
52642;SDS011;38531;53.296;6.614;2022-08-03T05:45:52;2.35;;;0.82;;
52642;SDS011;38531;53.296;6.614;2022-08-03T05:50:54;4.93;;;0.73;;
52642;SDS011;38531;53.296;6.614;2022-08-03T05:53:23;3.35;;;0.60;;
52642;SDS011;38531;53.296;6.614;2022-08-03T05:55:51;2.00;;;0.60;;
52642;SDS011;38531;53.296;6.614;2022-08-03T05:58:21;2.88;;;0.50;;
52642;SDS011;38531;53.296;6.614;2022-08-03T06:00:47;2.85;;;0.63;;
52642;SDS011;38531;53.296;6.614;2022-08-03T06:03:20;3.75;;;0.73;;
52642;SDS011;38531;53.296;6.614;2022-08-03T06:05:46;2.75;;;0.68;;
52642;SDS011;38531;53.296;6.614;2022-08-03T06:08:12;1.50;;;0.45;;
52642;SDS011;38531;53.296;6.614;2022-08-03T06:10:40;5.55;;;0.70;;
52642;SDS011;38531;53.296;6.614;2022-08-03T06:13:08;7.18;;;1.00;;
52642;SDS011;38531;53.296;6.614;2022-08-03T06:15:34;4.78;;;0.80;;
52642;SDS011;38531;53.296;6.614;2022-08-03T06:18:03;5.72;;;0.90;;
52642;SDS011;38531;53.296;6.614;2022-08-03T06:20:37;4.80;;;0.77;;
52642;SDS011;38531;53.296;6.614;2022-08-03T06:23:05;1.77;;;0.43;;
52642;SDS011;38531;53.296;6.614;2022-08-03T06:25:31;3.55;;;0.80;;
52642;SDS011;38531;53.296;6.614;2022-08-03T06:27:57;4.95;;;0.82;;
52642;SDS011;38531;53.296;6.614;2022-08-03T06:30:24;3.15;;;0.63;;
52642;SDS011;38531;53.296;6.614;2022-08-03T06:32:53;7.47;;;1.05;;
52642;SDS011;38531;53.296;6.614;2022-08-03T06:35:23;5.75;;;0.80;;
52642;SDS011;38531;53.296;6.614;2022-08-03T06:37:52;5.60;;;0.90;;
52642;SDS011;38531;53.296;6.614;2022-08-03T06:40:19;3.22;;;0.75;;
52642;SDS011;38531;53.296;6.614;2022-08-03T06:42:53;7.18;;;0.77;;
52642;SDS011;38531;53.296;6.614;2022-08-03T06:45:26;7.43;;;0.73;;
52642;SDS011;38531;53.296;6.614;2022-08-03T06:50:39;2.55;;;0.77;;
52642;SDS011;38531;53.296;6.614;2022-08-03T06:53:08;3.50;;;0.70;;
52642;SDS011;38531;53.296;6.614;2022-08-03T06:55:37;4.55;;;0.80;;
52642;SDS011;38531;53.296;6.614;2022-08-03T06:58:05;6.60;;;0.73;;
52642;SDS011;38531;53.296;6.614;2022-08-03T07:00:34;4.15;;;0.70;;
52642;SDS011;38531;53.296;6.614;2022-08-03T07:02:59;4.97;;;0.98;;
52642;SDS011;38531;53.296;6.614;2022-08-03T07:05:28;3.38;;;1.05;;
52642;SDS011;38531;53.296;6.614;2022-08-03T07:07:55;4.97;;;0.77;;
52642;SDS011;38531;53.296;6.614;2022-08-03T07:10:23;3.40;;;0.80;;
52642;SDS011;38531;53.296;6.614;2022-08-03T07:12:52;3.60;;;0.70;;
52642;SDS011;38531;53.296;6.614;2022-08-03T07:15:26;3.33;;;0.60;;
52642;SDS011;38531;53.296;6.614;2022-08-03T07:17:52;3.10;;;0.73;;
52642;SDS011;38531;53.296;6.614;2022-08-03T07:20:20;3.50;;;0.40;;
52642;SDS011;38531;53.296;6.614;2022-08-03T07:22:46;5.68;;;0.90;;
52642;SDS011;38531;53.296;6.614;2022-08-03T07:25:12;5.63;;;0.98;;
52642;SDS011;38531;53.296;6.614;2022-08-03T07:27:46;5.00;;;0.70;;
52642;SDS011;38531;53.296;6.614;2022-08-03T07:30:13;3.38;;;0.93;;
52642;SDS011;38531;53.296;6.614;2022-08-03T07:32:43;4.45;;;0.70;;
52642;SDS011;38531;53.296;6.614;2022-08-03T07:35:11;4.00;;;0.90;;
52642;SDS011;38531;53.296;6.614;2022-08-03T07:37:40;2.10;;;0.70;;
52642;SDS011;38531;53.296;6.614;2022-08-03T07:40:06;2.08;;;0.80;;
52642;SDS011;38531;53.296;6.614;2022-08-03T07:42:32;3.80;;;0.60;;
52642;SDS011;38531;53.296;6.614;2022-08-03T07:44:58;4.82;;;0.80;;
52642;SDS011;38531;53.296;6.614;2022-08-03T07:47:25;2.63;;;0.65;;
52642;SDS011;38531;53.296;6.614;2022-08-03T07:49:55;3.97;;;0.80;;
52642;SDS011;38531;53.296;6.614;2022-08-03T07:52:24;5.00;;;1.23;;
52642;SDS011;38531;53.296;6.614;2022-08-03T07:55:08;4.07;;;0.70;;
52642;SDS011;38531;53.296;6.614;2022-08-03T07:57:35;6.75;;;1.10;;
52642;SDS011;38531;53.296;6.614;2022-08-03T08:00:05;3.50;;;0.70;;
52642;SDS011;38531;53.296;6.614;2022-08-03T08:02:36;2.78;;;0.60;;
52642;SDS011;38531;53.296;6.614;2022-08-03T08:05:02;4.10;;;1.00;;
52642;SDS011;38531;53.296;6.614;2022-08-03T08:07:28;1.67;;;0.68;;
52642;SDS011;38531;53.296;6.614;2022-08-03T08:09:54;5.07;;;0.70;;
52642;SDS011;38531;53.296;6.614;2022-08-03T08:12:19;4.50;;;1.15;;
52642;SDS011;38531;53.296;6.614;2022-08-03T08:14:53;5.32;;;0.98;;
52642;SDS011;38531;53.296;6.614;2022-08-03T08:17:19;3.20;;;0.65;;
52642;SDS011;38531;53.296;6.614;2022-08-03T08:19:45;9.25;;;0.95;;
52642;SDS011;38531;53.296;6.614;2022-08-03T08:22:10;5.13;;;0.60;;
52642;SDS011;38531;53.296;6.614;2022-08-03T08:24:38;3.65;;;0.70;;
52642;SDS011;38531;53.296;6.614;2022-08-03T08:27:04;1.48;;;0.55;;
52642;SDS011;38531;53.296;6.614;2022-08-03T08:36:32;6.38;;;0.80;;
52642;SDS011;38531;53.296;6.614;2022-08-03T08:39:01;3.67;;;0.52;;
52642;SDS011;38531;53.296;6.614;2022-08-03T08:41:27;3.17;;;0.63;;
52642;SDS011;38531;53.296;6.614;2022-08-03T08:43:57;2.53;;;0.60;;
52642;SDS011;38531;53.296;6.614;2022-08-03T08:46:23;3.20;;;0.82;;
52642;SDS011;38531;53.296;6.614;2022-08-03T08:48:49;4.55;;;0.77;;
52642;SDS011;38531;53.296;6.614;2022-08-03T08:51:16;4.07;;;0.93;;
52642;SDS011;38531;53.296;6.614;2022-08-03T08:53:44;4.30;;;0.70;;
52642;SDS011;38531;53.296;6.614;2022-08-03T08:56:14;4.50;;;0.88;;
52642;SDS011;38531;53.296;6.614;2022-08-03T08:58:50;4.03;;;0.82;;
52642;SDS011;38531;53.296;6.614;2022-08-03T09:01:17;5.03;;;0.80;;
52642;SDS011;38531;53.296;6.614;2022-08-03T09:03:44;2.47;;;0.70;;
52642;SDS011;38531;53.296;6.614;2022-08-03T09:06:11;4.53;;;0.80;;
52642;SDS011;38531;53.296;6.614;2022-08-03T09:08:37;4.88;;;0.90;;
52642;SDS011;38531;53.296;6.614;2022-08-03T09:11:03;2.97;;;0.90;;
52642;SDS011;38531;53.296;6.614;2022-08-03T09:13:29;3.80;;;0.70;;
52642;SDS011;38531;53.296;6.614;2022-08-03T09:16:08;4.57;;;1.00;;
52642;SDS011;38531;53.296;6.614;2022-08-03T09:18:39;3.33;;;0.85;;
52642;SDS011;38531;53.296;6.614;2022-08-03T09:23:43;5.07;;;0.70;;
52642;SDS011;38531;53.296;6.614;2022-08-03T09:26:10;6.28;;;0.88;;
52642;SDS011;38531;53.296;6.614;2022-08-03T09:28:36;4.65;;;1.05;;
52642;SDS011;38531;53.296;6.614;2022-08-03T09:31:03;5.38;;;1.20;;
52642;SDS011;38531;53.296;6.614;2022-08-03T09:33:33;3.90;;;0.80;;
52642;SDS011;38531;53.296;6.614;2022-08-03T09:36:32;4.65;;;1.05;;
52642;SDS011;38531;53.296;6.614;2022-08-03T09:39:06;4.80;;;1.50;;
52642;SDS011;38531;53.296;6.614;2022-08-03T09:41:39;3.13;;;1.00;;
52642;SDS011;38531;53.296;6.614;2022-08-03T09:44:11;6.00;;;0.90;;
52642;SDS011;38531;53.296;6.614;2022-08-03T09:46:50;2.22;;;0.75;;
52642;SDS011;38531;53.296;6.614;2022-08-03T09:49:17;3.72;;;0.63;;
52642;SDS011;38531;53.296;6.614;2022-08-03T09:51:43;7.22;;;1.05;;
52642;SDS011;38531;53.296;6.614;2022-08-03T09:54:09;2.25;;;0.90;;
52642;SDS011;38531;53.296;6.614;2022-08-03T09:56:42;8.98;;;1.00;;
52642;SDS011;38531;53.296;6.614;2022-08-03T09:59:10;5.95;;;1.30;;
52642;SDS011;38531;53.296;6.614;2022-08-03T10:01:39;6.03;;;0.98;;
52642;SDS011;38531;53.296;6.614;2022-08-03T10:04:10;5.13;;;0.90;;
52642;SDS011;38531;53.296;6.614;2022-08-03T10:06:38;5.18;;;1.20;;
52642;SDS011;38531;53.296;6.614;2022-08-03T10:09:08;2.63;;;0.93;;
52642;SDS011;38531;53.296;6.614;2022-08-03T10:11:37;4.40;;;0.80;;
52642;SDS011;38531;53.296;6.614;2022-08-03T10:14:04;2.30;;;0.80;;
52642;SDS011;38531;53.296;6.614;2022-08-03T10:16:35;3.83;;;1.13;;
52642;SDS011;38531;53.296;6.614;2022-08-03T10:19:03;3.75;;;1.00;;
52642;SDS011;38531;53.296;6.614;2022-08-03T10:21:31;3.40;;;1.00;;
52642;SDS011;38531;53.296;6.614;2022-08-03T10:24:08;7.00;;;0.90;;
52642;SDS011;38531;53.296;6.614;2022-08-03T10:26:37;3.83;;;1.27;;
52642;SDS011;38531;53.296;6.614;2022-08-03T10:29:05;4.40;;;1.00;;
52642;SDS011;38531;53.296;6.614;2022-08-03T10:31:40;7.82;;;0.95;;
52642;SDS011;38531;53.296;6.614;2022-08-03T10:34:14;4.77;;;0.97;;
52642;SDS011;38531;53.296;6.614;2022-08-03T10:36:43;4.35;;;0.90;;
52642;SDS011;38531;53.296;6.614;2022-08-03T10:39:11;8.23;;;1.42;;
52642;SDS011;38531;53.296;6.614;2022-08-03T10:41:39;5.80;;;0.98;;
52642;SDS011;38531;53.296;6.614;2022-08-03T10:44:09;3.88;;;1.10;;
52642;SDS011;38531;53.296;6.614;2022-08-03T10:46:39;5.55;;;1.15;;
52642;SDS011;38531;53.296;6.614;2022-08-03T10:49:07;7.38;;;1.08;;
52642;SDS011;38531;53.296;6.614;2022-08-03T10:51:36;6.10;;;1.05;;
52642;SDS011;38531;53.296;6.614;2022-08-03T10:54:02;3.42;;;0.90;;
52642;SDS011;38531;53.296;6.614;2022-08-03T10:59:16;4.07;;;0.90;;
52642;SDS011;38531;53.296;6.614;2022-08-03T11:01:49;7.43;;;1.05;;
52642;SDS011;38531;53.296;6.614;2022-08-03T11:04:17;6.15;;;1.30;;
52642;SDS011;38531;53.296;6.614;2022-08-03T11:06:44;7.15;;;0.95;;
52642;SDS011;38531;53.296;6.614;2022-08-03T11:11:37;7.60;;;1.30;;
52642;SDS011;38531;53.296;6.614;2022-08-03T11:16:30;3.45;;;0.80;;
52642;SDS011;38531;53.296;6.614;2022-08-03T11:19:03;6.38;;;1.10;;
52642;SDS011;38531;53.296;6.614;2022-08-03T11:21:51;5.65;;;1.27;;
52642;SDS011;38531;53.296;6.614;2022-08-03T11:35:11;5.88;;;1.10;;
52642;SDS011;38531;53.296;6.614;2022-08-03T11:42:59;9.48;;;1.63;;
52642;SDS011;38531;53.296;6.614;2022-08-03T11:45:25;6.22;;;1.10;;
52642;SDS011;38531;53.296;6.614;2022-08-03T11:47:52;8.10;;;1.70;;
52642;SDS011;38531;53.296;6.614;2022-08-03T11:50:19;6.28;;;1.30;;
52642;SDS011;38531;53.296;6.614;2022-08-03T11:52:46;8.73;;;1.73;;
52642;SDS011;38531;53.296;6.614;2022-08-03T11:55:14;6.82;;;1.50;;
52642;SDS011;38531;53.296;6.614;2022-08-03T11:57:42;6.43;;;1.20;;
52642;SDS011;38531;53.296;6.614;2022-08-03T12:02:59;5.70;;;1.50;;
52642;SDS011;38531;53.296;6.614;2022-08-03T12:05:33;8.75;;;1.67;;
52642;SDS011;38531;53.296;6.614;2022-08-03T12:07:59;8.77;;;1.30;;
52642;SDS011;38531;53.296;6.614;2022-08-03T12:10:25;8.50;;;1.20;;
52642;SDS011;38531;53.296;6.614;2022-08-03T12:12:58;9.65;;;1.70;;
52642;SDS011;38531;53.296;6.614;2022-08-03T12:15:28;9.00;;;1.35;;
52642;SDS011;38531;53.296;6.614;2022-08-03T12:17:56;5.18;;;1.38;;
52642;SDS011;38531;53.296;6.614;2022-08-03T12:20:24;7.20;;;1.55;;
52642;SDS011;38531;53.296;6.614;2022-08-03T12:22:51;7.55;;;1.73;;
52642;SDS011;38531;53.296;6.614;2022-08-03T12:25:23;7.93;;;1.33;;
52642;SDS011;38531;53.296;6.614;2022-08-03T12:30:18;8.65;;;1.55;;
52642;SDS011;38531;53.296;6.614;2022-08-03T12:32:44;7.78;;;2.63;;
52642;SDS011;38531;53.296;6.614;2022-08-03T12:35:20;8.38;;;2.08;;
52642;SDS011;38531;53.296;6.614;2022-08-03T12:37:50;7.00;;;1.50;;
52642;SDS011;38531;53.296;6.614;2022-08-03T12:40:23;9.20;;;1.27;;
52642;SDS011;38531;53.296;6.614;2022-08-03T12:42:52;8.43;;;1.40;;
52642;SDS011;38531;53.296;6.614;2022-08-03T12:45:19;11.57;;;1.63;;
52642;SDS011;38531;53.296;6.614;2022-08-03T12:47:50;5.93;;;1.58;;
52642;SDS011;38531;53.296;6.614;2022-08-03T12:50:26;8.27;;;1.88;;
52642;SDS011;38531;53.296;6.614;2022-08-03T12:52:54;8.50;;;1.88;;
52642;SDS011;38531;53.296;6.614;2022-08-03T12:55:21;8.07;;;1.52;;
52642;SDS011;38531;53.296;6.614;2022-08-03T12:57:48;10.77;;;1.73;;
52642;SDS011;38531;53.296;6.614;2022-08-03T13:00:15;7.15;;;1.20;;
52642;SDS011;38531;53.296;6.614;2022-08-03T13:02:42;9.40;;;1.30;;
52642;SDS011;38531;53.296;6.614;2022-08-03T13:05:09;4.65;;;1.15;;
52642;SDS011;38531;53.296;6.614;2022-08-03T13:07:42;8.35;;;1.55;;
52642;SDS011;38531;53.296;6.614;2022-08-03T13:10:10;9.07;;;1.50;;
52642;SDS011;38531;53.296;6.614;2022-08-03T13:12:46;5.18;;;0.95;;
52642;SDS011;38531;53.296;6.614;2022-08-03T13:15:14;3.47;;;1.00;;
52642;SDS011;38531;53.296;6.614;2022-08-03T13:17:40;4.53;;;1.52;;
52642;SDS011;38531;53.296;6.614;2022-08-03T13:20:06;9.23;;;1.25;;
52642;SDS011;38531;53.296;6.614;2022-08-03T13:22:32;6.90;;;1.40;;
52642;SDS011;38531;53.296;6.614;2022-08-03T13:24:59;6.40;;;1.60;;
52642;SDS011;38531;53.296;6.614;2022-08-03T13:27:28;11.57;;;1.73;;
52642;SDS011;38531;53.296;6.614;2022-08-03T13:29:55;5.22;;;1.05;;
52642;SDS011;38531;53.296;6.614;2022-08-03T13:32:21;5.90;;;1.20;;
52642;SDS011;38531;53.296;6.614;2022-08-03T13:34:47;5.93;;;1.65;;
52642;SDS011;38531;53.296;6.614;2022-08-03T13:37:13;2.80;;;1.10;;
52642;SDS011;38531;53.296;6.614;2022-08-03T13:39:39;6.20;;;1.20;;
52642;SDS011;38531;53.296;6.614;2022-08-03T13:42:06;9.55;;;1.33;;
52642;SDS011;38531;53.296;6.614;2022-08-03T13:44:32;10.55;;;1.90;;
52642;SDS011;38531;53.296;6.614;2022-08-03T13:47:01;3.90;;;0.88;;
52642;SDS011;38531;53.296;6.614;2022-08-03T13:49:27;7.57;;;1.70;;
52642;SDS011;38531;53.296;6.614;2022-08-03T13:51:54;8.15;;;1.63;;
52642;SDS011;38531;53.296;6.614;2022-08-03T13:54:20;6.10;;;1.30;;
52642;SDS011;38531;53.296;6.614;2022-08-03T13:56:46;4.60;;;1.08;;
52642;SDS011;38531;53.296;6.614;2022-08-03T13:59:17;7.15;;;1.48;;
52642;SDS011;38531;53.296;6.614;2022-08-03T14:01:47;6.95;;;1.10;;
52642;SDS011;38531;53.296;6.614;2022-08-03T14:04:13;5.78;;;1.10;;
52642;SDS011;38531;53.296;6.614;2022-08-03T14:06:39;5.43;;;1.45;;
52642;SDS011;38531;53.296;6.614;2022-08-03T14:09:05;6.75;;;1.88;;
52642;SDS011;38531;53.296;6.614;2022-08-03T14:11:31;7.03;;;1.17;;
52642;SDS011;38531;53.296;6.614;2022-08-03T14:13:58;5.68;;;1.33;;
52642;SDS011;38531;53.296;6.614;2022-08-03T14:16:23;3.20;;;1.20;;
52642;SDS011;38531;53.296;6.614;2022-08-03T14:18:49;7.22;;;1.00;;
52642;SDS011;38531;53.296;6.614;2022-08-03T14:21:15;3.83;;;1.08;;
52642;SDS011;38531;53.296;6.614;2022-08-03T14:23:41;8.43;;;1.33;;
52642;SDS011;38531;53.296;6.614;2022-08-03T14:26:07;7.03;;;1.25;;
52642;SDS011;38531;53.296;6.614;2022-08-03T14:28:39;5.45;;;0.80;;
52642;SDS011;38531;53.296;6.614;2022-08-03T14:31:08;6.55;;;1.30;;
52642;SDS011;38531;53.296;6.614;2022-08-03T14:33:34;2.60;;;0.85;;
52642;SDS011;38531;53.296;6.614;2022-08-03T14:36:00;7.88;;;1.20;;
52642;SDS011;38531;53.296;6.614;2022-08-03T14:38:25;6.43;;;1.08;;
52642;SDS011;38531;53.296;6.614;2022-08-03T14:40:51;7.32;;;1.13;;
52642;SDS011;38531;53.296;6.614;2022-08-03T14:43:17;4.53;;;1.30;;
52642;SDS011;38531;53.296;6.614;2022-08-03T14:45:45;6.80;;;1.25;;
52642;SDS011;38531;53.296;6.614;2022-08-03T14:48:16;8.35;;;1.25;;
52642;SDS011;38531;53.296;6.614;2022-08-03T14:50:43;5.35;;;1.45;;
52642;SDS011;38531;53.296;6.614;2022-08-03T14:53:09;7.00;;;1.27;;
52642;SDS011;38531;53.296;6.614;2022-08-03T14:55:34;5.30;;;1.25;;
52642;SDS011;38531;53.296;6.614;2022-08-03T14:58:00;3.50;;;1.20;;
52642;SDS011;38531;53.296;6.614;2022-08-03T15:00:32;6.95;;;1.40;;
52642;SDS011;38531;53.296;6.614;2022-08-03T15:02:59;5.32;;;1.20;;
52642;SDS011;38531;53.296;6.614;2022-08-03T15:05:26;5.90;;;1.17;;
52642;SDS011;38531;53.296;6.614;2022-08-03T15:07:54;7.78;;;1.35;;
52642;SDS011;38531;53.296;6.614;2022-08-03T15:10:19;3.42;;;0.90;;
52642;SDS011;38531;53.296;6.614;2022-08-03T15:12:45;8.55;;;1.10;;
52642;SDS011;38531;53.296;6.614;2022-08-03T15:15:11;8.18;;;1.65;;
52642;SDS011;38531;53.296;6.614;2022-08-03T15:17:37;4.63;;;1.17;;
52642;SDS011;38531;53.296;6.614;2022-08-03T15:20:03;4.40;;;1.45;;
52642;SDS011;38531;53.296;6.614;2022-08-03T15:22:29;4.60;;;1.35;;
52642;SDS011;38531;53.296;6.614;2022-08-03T15:24:56;8.50;;;1.27;;
52642;SDS011;38531;53.296;6.614;2022-08-03T15:27:25;3.88;;;1.00;;
52642;SDS011;38531;53.296;6.614;2022-08-03T15:29:50;4.25;;;1.60;;
52642;SDS011;38531;53.296;6.614;2022-08-03T15:32:16;4.53;;;1.30;;
52642;SDS011;38531;53.296;6.614;2022-08-03T15:34:42;7.55;;;1.70;;
52642;SDS011;38531;53.296;6.614;2022-08-03T15:37:08;6.57;;;1.73;;
52642;SDS011;38531;53.296;6.614;2022-08-03T15:39:33;5.20;;;1.45;;
52642;SDS011;38531;53.296;6.614;2022-08-03T15:41:59;3.65;;;1.17;;
52642;SDS011;38531;53.296;6.614;2022-08-03T15:44:25;2.67;;;1.00;;
52642;SDS011;38531;53.296;6.614;2022-08-03T15:46:51;6.45;;;1.00;;
52642;SDS011;38531;53.296;6.614;2022-08-03T15:49:17;5.22;;;1.33;;
52642;SDS011;38531;53.296;6.614;2022-08-03T15:51:44;4.15;;;0.98;;
52642;SDS011;38531;53.296;6.614;2022-08-03T15:54:11;4.57;;;1.25;;
52642;SDS011;38531;53.296;6.614;2022-08-03T15:56:37;5.28;;;1.15;;
52642;SDS011;38531;53.296;6.614;2022-08-03T15:59:09;2.50;;;1.13;;
52642;SDS011;38531;53.296;6.614;2022-08-03T16:01:36;4.50;;;0.90;;
52642;SDS011;38531;53.296;6.614;2022-08-03T16:04:02;5.80;;;1.25;;